createdAt,value
2019-02-20T00:01:46.958Z,67.44
2019-02-20T00:04:18.227Z,68.29
2019-02-20T00:06:49.556Z,68.35
2019-02-20T00:09:19.823Z,68.40
2019-02-20T00:11:50.098Z,68.42
2019-02-20T00:14:20.399Z,68.58
2019-02-20T00:16:50.671Z,68.37
2019-02-20T00:19:21.072Z,68.81
2019-02-20T00:21:51.384Z,68.70
2019-02-20T00:24:21.715Z,68.93
2019-02-20T00:26:52.095Z,68.73
2019-02-20T00:29:22.370Z,68.42
2019-02-20T00:31:52.819Z,68.48
2019-02-20T00:34:23.243Z,67.47
2019-02-20T00:36:53.566Z,67.47
2019-02-20T00:39:23.827Z,66.85
2019-02-20T00:41:54.089Z,67.24
2019-02-20T00:44:28.714Z,67.34
2019-02-20T00:47:17.084Z,67.36
2019-02-20T00:49:47.362Z,67.41
2019-02-20T00:52:28.154Z,66.77
2019-02-20T00:54:58.469Z,66.84
2019-02-20T00:57:28.752Z,66.51
2019-02-20T00:59:59.020Z,66.71
2019-02-20T01:02:29.370Z,66.96
2019-02-20T01:04:59.579Z,67.38
2019-02-20T01:07:29.868Z,67.66
2019-02-20T01:10:00.350Z,67.32
2019-02-20T01:12:30.745Z,67.54
2019-02-20T01:15:01.585Z,67.43
2019-02-20T01:17:31.862Z,67.43
2019-02-20T01:20:02.136Z,67.81
2019-02-20T01:22:32.637Z,67.89
2019-02-20T01:25:02.956Z,67.98
2019-02-20T01:27:33.210Z,67.54
2019-02-20T01:30:04.756Z,67.40
2019-02-20T01:32:35.032Z,67.64
2019-02-20T01:35:05.536Z,67.56
2019-02-20T01:37:35.789Z,67.78
2019-02-20T01:40:06.613Z,67.71
2019-02-20T01:42:36.893Z,67.72
2019-02-20T01:45:08.082Z,67.50
2019-02-20T01:47:38.337Z,67.21
2019-02-20T01:50:08.626Z,67.40
2019-02-20T01:52:38.901Z,67.27
2019-02-20T01:55:09.245Z,67.70
2019-02-20T01:57:39.532Z,67.85
2019-02-20T02:00:11.948Z,67.81
2019-02-20T02:02:42.272Z,68.02
2019-02-20T02:05:15.702Z,68.15
2019-02-20T02:07:45.865Z,68.36
2019-02-20T02:10:17.185Z,69.02
2019-02-20T02:12:47.462Z,69.22
2019-02-20T02:15:20.560Z,69.21
2019-02-20T02:17:49.782Z,69.59
2019-02-20T02:20:20.047Z,69.57
2019-02-20T02:22:50.348Z,69.24
2019-02-20T02:25:20.621Z,69.40
2019-02-20T02:27:50.942Z,69.54
2019-02-20T02:30:21.219Z,69.35
2019-02-20T02:32:51.496Z,69.49
2019-02-20T02:35:21.787Z,69.18
2019-02-20T02:37:52.067Z,69.56
2019-02-20T02:40:22.335Z,69.71
2019-02-20T02:42:52.615Z,69.31
2019-02-20T02:45:22.890Z,69.35
2019-02-20T02:47:53.153Z,69.55
2019-02-20T02:50:23.443Z,69.27
2019-02-20T02:52:53.707Z,69.12
2019-02-20T02:55:23.975Z,69.04
2019-02-20T02:57:54.229Z,69.14
2019-02-20T03:00:24.522Z,68.72
2019-02-20T03:02:54.789Z,68.57
2019-02-20T03:05:25.068Z,68.42
2019-02-20T03:07:55.338Z,68.23
2019-02-20T03:10:25.613Z,68.84
2019-02-20T03:12:55.880Z,68.48
2019-02-20T03:15:26.162Z,68.31
2019-02-20T03:17:56.430Z,68.71
2019-02-20T03:20:26.680Z,68.65
2019-02-20T03:22:56.972Z,68.45
2019-02-20T03:25:27.223Z,67.79
2019-02-20T03:27:57.516Z,68.40
2019-02-20T03:30:27.793Z,68.65
2019-02-20T03:32:58.123Z,68.58
2019-02-20T03:35:28.397Z,68.74
2019-02-20T03:37:58.668Z,68.43
2019-02-20T03:40:29.071Z,68.15
2019-02-20T03:42:59.459Z,68.38
2019-02-20T03:45:29.735Z,68.36
2019-02-20T03:48:00.048Z,68.65
2019-02-20T03:50:30.393Z,68.43
2019-02-20T03:53:00.742Z,68.60
2019-02-20T03:55:30.989Z,68.56
2019-02-20T03:58:01.254Z,68.59
2019-02-20T04:00:32.525Z,68.04
2019-02-20T04:03:02.830Z,68.13
2019-02-20T04:05:33.135Z,68.26
2019-02-20T04:08:04.447Z,67.65
2019-02-20T04:10:35.785Z,67.91
2019-02-20T04:13:06.096Z,68.13
2019-02-20T04:15:36.351Z,67.96
2019-02-20T04:18:06.663Z,67.86
2019-02-20T04:20:36.945Z,67.67
2019-02-20T04:23:07.235Z,68.05
2019-02-20T04:25:37.563Z,67.91
2019-02-20T04:28:07.837Z,67.99
2019-02-20T04:30:38.122Z,67.80
2019-02-20T04:33:08.364Z,67.53
2019-02-20T04:35:38.730Z,67.25
2019-02-20T04:38:08.980Z,67.12
2019-02-20T04:40:39.248Z,67.17
2019-02-20T04:43:09.547Z,67.32
2019-02-20T04:45:39.859Z,67.42
2019-02-20T04:48:10.240Z,67.66
2019-02-20T04:50:40.507Z,68.01
2019-02-20T04:53:10.847Z,67.94
2019-02-20T04:55:41.143Z,68.04
2019-02-20T04:58:18.839Z,67.53
2019-02-20T05:00:49.245Z,67.68
2019-02-20T05:03:19.605Z,67.80
2019-02-20T05:05:50.086Z,67.64
2019-02-20T05:08:21.155Z,67.76
2019-02-20T05:10:51.436Z,67.20
2019-02-20T05:13:21.708Z,67.64
2019-02-20T05:15:51.981Z,67.51
2019-02-20T05:18:22.279Z,67.67
2019-02-20T05:20:52.574Z,67.90
2019-02-20T05:23:22.842Z,68.29
2019-02-20T05:25:53.147Z,67.65
2019-02-20T05:28:23.473Z,67.68
2019-02-20T05:30:53.826Z,67.80
2019-02-20T05:33:24.098Z,67.40
2019-02-20T05:35:54.565Z,67.80
2019-02-20T05:38:24.947Z,67.82
2019-02-20T05:40:55.314Z,68.06
2019-02-20T05:43:25.758Z,68.21
2019-02-20T05:45:56.108Z,68.36
2019-02-20T05:48:26.361Z,67.67
2019-02-20T05:50:56.761Z,67.29
2019-02-20T05:53:27.235Z,67.73
2019-02-20T05:55:57.559Z,67.16
2019-02-20T05:58:27.825Z,67.93
2019-02-20T06:01:00.643Z,68.01
2019-02-20T06:03:31.087Z,67.60
2019-02-20T06:06:01.392Z,67.52
2019-02-20T06:08:31.720Z,66.96
2019-02-20T06:11:13.882Z,67.00
2019-02-20T06:13:35.566Z,67.54
2019-02-20T06:16:05.839Z,68.63
2019-02-20T06:18:36.109Z,69.05
2019-02-20T06:21:06.470Z,69.51
2019-02-20T06:23:36.727Z,70.13
2019-02-20T06:26:07.193Z,69.92
2019-02-20T06:28:37.561Z,69.65
2019-02-20T06:31:08.099Z,68.83
2019-02-20T06:33:38.459Z,68.75
2019-02-20T06:36:08.760Z,69.00
2019-02-20T06:38:39.038Z,68.93
2019-02-20T06:41:09.480Z,69.24
2019-02-20T06:43:40.157Z,69.92
2019-02-20T06:46:10.613Z,70.26
2019-02-20T06:48:42.269Z,70.45
2019-02-20T06:51:13.237Z,70.21
2019-02-20T06:53:44.040Z,70.01
2019-02-20T06:56:14.577Z,69.56
2019-02-20T06:58:45.399Z,69.20
2019-02-20T07:01:15.766Z,68.75
2019-02-20T07:03:47.077Z,68.52
2019-02-20T07:06:25.910Z,67.96
2019-02-20T07:09:15.706Z,67.22
2019-02-20T07:12:16.511Z,66.91
2019-02-20T07:15:07.033Z,65.98
2019-02-20T07:17:48.629Z,66.68
2019-02-20T07:20:55.786Z,66.78
2019-02-20T07:23:41.191Z,65.76
2019-02-20T07:26:38.609Z,65.99
2019-02-20T07:29:17.918Z,66.31
2019-02-20T07:31:48.211Z,66.42
2019-02-20T07:34:18.531Z,67.10
2019-02-20T07:36:48.999Z,67.03
2019-02-20T07:39:19.686Z,66.52
2019-02-20T07:41:49.974Z,67.17
2019-02-20T07:44:20.282Z,67.47
2019-02-20T07:46:50.566Z,66.98
2019-02-20T07:49:20.902Z,66.21
2019-02-20T07:51:52.170Z,66.23
2019-02-20T07:54:22.422Z,66.08
2019-02-20T07:56:52.741Z,66.37
2019-02-20T07:59:23.055Z,66.53
2019-02-20T08:01:53.435Z,66.26
2019-02-20T08:04:23.695Z,66.68
2019-02-20T08:06:53.963Z,65.89
2019-02-20T08:09:24.259Z,66.15
2019-02-20T08:11:54.541Z,66.43
2019-02-20T08:14:24.831Z,65.78
2019-02-20T08:16:55.667Z,65.13
2019-02-20T08:19:26.406Z,64.55
2019-02-20T08:21:56.683Z,64.05
2019-02-20T08:24:27.007Z,63.23
2019-02-20T08:26:57.307Z,63.36
2019-02-20T08:29:27.935Z,63.22
2019-02-20T08:31:58.385Z,62.12
2019-02-20T08:34:28.730Z,60.72
2019-02-20T08:36:59.342Z,60.64
2019-02-20T08:39:29.718Z,60.86
2019-02-20T08:41:59.993Z,60.88
2019-02-20T08:44:30.313Z,61.67
2019-02-20T08:47:00.587Z,61.76
2019-02-20T08:49:31.283Z,62.35
2019-02-20T08:52:01.743Z,61.88
2019-02-20T08:54:32.348Z,62.46
2019-02-20T08:57:02.700Z,61.89
2019-02-20T08:59:33.039Z,61.75
2019-02-20T09:02:03.628Z,60.90
2019-02-20T09:04:33.903Z,60.91
2019-02-20T09:07:05.532Z,61.46
2019-02-20T09:09:35.883Z,60.73
2019-02-20T09:12:06.181Z,61.16
2019-02-20T09:14:36.731Z,60.46
2019-02-20T09:17:08.853Z,61.38
2019-02-20T09:19:39.131Z,61.32
2019-02-20T09:22:10.404Z,60.06
2019-02-20T09:24:41.125Z,59.47
2019-02-20T09:27:11.570Z,59.59
2019-02-20T09:29:42.107Z,60.35
2019-02-20T09:32:12.496Z,57.28
2019-02-20T09:34:42.784Z,57.59
2019-02-20T09:37:13.117Z,57.67
2019-02-20T09:39:43.541Z,57.10
2019-02-20T09:42:13.810Z,57.51
2019-02-20T09:44:45.670Z,55.20
2019-02-20T09:47:16.009Z,55.21
2019-02-20T09:49:46.460Z,55.16
2019-02-20T09:52:16.769Z,56.07
2019-02-20T09:54:47.152Z,57.09
2019-02-20T09:57:17.519Z,56.98
2019-02-20T09:59:48.182Z,56.66
2019-02-20T10:02:18.487Z,56.38
2019-02-20T10:04:49.368Z,57.11
2019-02-20T10:07:19.732Z,56.36
2019-02-20T10:09:49.949Z,57.53
2019-02-20T10:12:20.242Z,56.57
2019-02-20T10:14:50.551Z,57.64
2019-02-20T10:17:20.809Z,56.51
2019-02-20T10:19:51.089Z,56.84
2019-02-20T10:22:21.346Z,56.82
2019-02-20T10:24:51.657Z,56.81
2019-02-20T10:27:21.951Z,56.43
2019-02-20T10:29:53.216Z,56.97
2019-02-20T10:32:23.577Z,57.28
2019-02-20T10:34:53.867Z,56.23
2019-02-20T10:37:25.677Z,55.87
2019-02-20T10:39:55.918Z,55.96
2019-02-20T10:42:26.193Z,56.08
2019-02-20T10:44:56.483Z,54.96
2019-02-20T10:47:26.780Z,55.65
2019-02-20T10:49:57.092Z,55.18
2019-02-20T10:52:27.382Z,55.83
2019-02-20T10:54:58.092Z,55.93
2019-02-20T10:57:28.573Z,55.95
2019-02-20T10:59:58.872Z,56.24
2019-02-20T11:02:29.143Z,56.56
2019-02-20T11:04:59.432Z,56.70
2019-02-20T11:07:29.750Z,56.80
2019-02-20T11:10:00.021Z,56.71
2019-02-20T11:12:32.160Z,56.65
2019-02-20T11:15:02.445Z,56.78
2019-02-20T11:17:33.428Z,56.77
2019-02-20T11:20:04.521Z,55.88
2019-02-20T11:22:34.837Z,56.75
2019-02-20T11:25:07.847Z,56.03
2019-02-20T11:27:39.437Z,56.18
2019-02-20T11:30:20.186Z,56.32
2019-02-20T11:32:50.577Z,56.64
2019-02-20T11:35:20.906Z,56.18
2019-02-20T11:37:51.228Z,56.64
2019-02-20T11:40:21.590Z,56.58
2019-02-20T11:42:51.893Z,57.06
2019-02-20T11:45:22.497Z,57.23
2019-02-20T11:47:52.875Z,56.36
2019-02-20T11:50:23.177Z,56.35
2019-02-20T11:52:53.447Z,56.42
2019-02-20T11:55:24.074Z,56.62
2019-02-20T11:58:00.529Z,55.81
2019-02-20T12:00:26.832Z,56.77
2019-02-20T12:02:57.175Z,55.65
2019-02-20T12:05:27.760Z,55.96
2019-02-20T12:07:58.047Z,55.34
2019-02-20T12:10:28.369Z,55.90
2019-02-20T12:12:58.656Z,55.63
2019-02-20T12:15:29.147Z,56.33
2019-02-20T12:18:00.889Z,55.49
2019-02-20T12:20:31.223Z,55.10
2019-02-20T12:23:02.003Z,55.38
2019-02-20T12:25:32.281Z,55.15
2019-02-20T12:28:02.569Z,55.08
2019-02-20T12:30:32.849Z,55.41
2019-02-20T12:33:03.125Z,55.55
2019-02-20T12:35:33.440Z,54.91
2019-02-20T12:38:03.689Z,55.25
2019-02-20T12:40:34.072Z,55.18
2019-02-20T12:43:04.475Z,54.90
2019-02-20T12:45:35.455Z,54.95
2019-02-20T12:48:05.812Z,55.55
2019-02-20T12:50:36.079Z,55.46
2019-02-20T12:53:06.374Z,55.45
2019-02-20T12:55:36.671Z,54.94
2019-02-20T12:58:06.970Z,54.77
2019-02-20T13:00:37.257Z,55.11
2019-02-20T13:03:07.551Z,54.92
2019-02-20T13:05:37.841Z,54.65
2019-02-20T13:08:08.148Z,55.30
2019-02-20T13:10:38.442Z,55.86
2019-02-20T13:13:08.709Z,55.69
2019-02-20T13:15:39.050Z,56.38
2019-02-20T13:18:09.355Z,56.20
2019-02-20T13:20:39.620Z,55.62
2019-02-20T13:23:09.877Z,55.88
2019-02-20T13:25:41.133Z,55.22
2019-02-20T13:28:11.422Z,55.96
2019-02-20T13:30:41.728Z,55.28
2019-02-20T13:33:12.002Z,55.89
2019-02-20T13:35:42.422Z,55.49
2019-02-20T13:38:12.721Z,54.19
2019-02-20T13:40:43.258Z,54.65
2019-02-20T13:43:13.657Z,55.13
2019-02-20T13:45:44.092Z,55.24
2019-02-20T13:48:14.426Z,54.54
2019-02-20T13:50:44.847Z,55.49
2019-02-20T13:53:15.113Z,55.36
2019-02-20T13:55:45.404Z,56.42
2019-02-20T13:58:17.645Z,55.28
2019-02-20T14:00:47.838Z,55.70
2019-02-20T14:03:19.318Z,55.56
2019-02-20T14:05:49.621Z,56.41
2019-02-20T14:08:19.938Z,56.65
2019-02-20T14:10:50.268Z,56.52
2019-02-20T14:13:22.468Z,55.70
2019-02-20T14:15:53.457Z,55.92
2019-02-20T14:18:24.034Z,57.03
2019-02-20T14:20:54.923Z,55.42
2019-02-20T14:23:25.524Z,55.76
2019-02-20T14:25:55.890Z,55.88
2019-02-20T14:28:26.592Z,55.46
2019-02-20T14:30:58.924Z,55.05
2019-02-20T14:33:29.791Z,55.48
2019-02-20T14:36:00.411Z,56.19
2019-02-20T14:38:32.048Z,55.60
2019-02-20T14:41:02.421Z,55.12
2019-02-20T14:43:34.567Z,55.11
2019-02-20T14:46:05.394Z,55.96
2019-02-20T14:48:36.176Z,56.38
2019-02-20T14:51:07.049Z,56.25
2019-02-20T14:53:39.379Z,56.45
2019-02-20T14:56:10.056Z,56.18
2019-02-20T14:58:40.748Z,55.69
2019-02-20T15:01:13.496Z,55.04
2019-02-20T15:03:44.629Z,54.34
2019-02-20T15:06:15.643Z,54.76
2019-02-20T15:08:47.326Z,54.67
2019-02-20T15:11:17.946Z,54.46
2019-02-20T15:13:50.327Z,54.40
2019-02-20T15:16:21.007Z,54.24
2019-02-20T15:18:51.570Z,53.85
2019-02-20T15:21:21.857Z,54.32
2019-02-20T15:23:52.220Z,53.85
2019-02-20T15:26:22.788Z,54.45
2019-02-20T15:28:54.846Z,54.63
2019-02-20T15:31:33.396Z,53.31
2019-02-20T15:33:59.532Z,54.07
2019-02-20T15:36:29.937Z,54.80
2019-02-20T15:39:00.538Z,55.65
2019-02-20T15:41:32.490Z,55.10
2019-02-20T15:44:03.084Z,55.60
2019-02-20T15:46:33.623Z,55.56
2019-02-20T15:49:05.775Z,55.42
2019-02-20T15:51:37.112Z,55.88
2019-02-20T15:54:07.484Z,56.69
2019-02-20T15:56:37.991Z,56.69
2019-02-20T15:59:08.276Z,56.62
2019-02-20T16:01:38.604Z,56.84
2019-02-20T16:04:09.168Z,56.42
2019-02-20T16:06:39.443Z,56.38
2019-02-20T16:09:10.295Z,55.60
2019-02-20T16:11:42.259Z,55.86
2019-02-20T16:14:12.561Z,55.38
2019-02-20T16:16:44.246Z,55.57
2019-02-20T16:19:14.532Z,55.60
2019-02-20T16:21:45.013Z,54.88
2019-02-20T16:24:15.316Z,54.81
2019-02-20T16:26:45.875Z,54.54
2019-02-20T16:29:18.335Z,54.90
2019-02-20T16:31:52.284Z,55.07
2019-02-20T16:34:24.028Z,55.23
2019-02-20T16:36:58.017Z,54.77
2019-02-20T16:39:28.308Z,54.66
2019-02-20T16:41:58.623Z,54.98
2019-02-20T16:44:29.178Z,54.58
2019-02-20T16:46:59.463Z,54.74
2019-02-20T16:49:29.768Z,54.80
2019-02-20T16:52:00.086Z,54.43
2019-02-20T16:54:30.384Z,54.38
2019-02-20T16:57:05.537Z,54.59
2019-02-20T16:59:36.127Z,53.65
2019-02-20T17:02:06.477Z,53.42
2019-02-20T17:04:37.143Z,53.40
2019-02-20T17:07:07.558Z,53.22
2019-02-20T17:09:37.947Z,53.28
2019-02-20T17:12:08.564Z,53.19
2019-02-20T17:14:38.847Z,53.05
2019-02-20T17:17:10.159Z,52.86
2019-02-20T17:19:42.833Z,53.47
2019-02-20T17:22:14.362Z,53.38
2019-02-20T17:24:46.289Z,53.95
2019-02-20T17:27:16.567Z,54.05
2019-02-20T17:29:47.006Z,52.64
2019-02-20T17:32:17.373Z,52.94
2019-02-20T17:34:47.725Z,51.96
2019-02-20T17:37:18.055Z,51.36
2019-02-20T17:39:48.412Z,52.76
2019-02-20T17:42:19.933Z,52.62
2019-02-20T17:44:50.230Z,52.67
2019-02-20T17:47:20.590Z,52.89
2019-02-20T17:49:50.924Z,52.87
2019-02-20T17:52:21.510Z,52.89
2019-02-20T17:54:53.836Z,53.15
2019-02-20T17:57:24.134Z,52.22
2019-02-20T17:59:54.457Z,52.27
2019-02-20T18:02:24.758Z,52.90
2019-02-20T18:04:56.578Z,53.56
2019-02-20T18:07:26.953Z,53.68
2019-02-20T18:09:57.354Z,52.53
2019-02-20T18:12:27.699Z,52.32
2019-02-20T18:14:58.063Z,53.06
2019-02-20T18:17:28.374Z,53.31
2019-02-20T18:19:58.711Z,54.37
2019-02-20T18:22:28.991Z,52.89
2019-02-20T18:24:59.341Z,52.89
2019-02-20T18:27:29.710Z,53.21
2019-02-20T18:30:01.144Z,53.34
2019-02-20T18:32:32.695Z,53.21
2019-02-20T18:35:07.382Z,53.87
2019-02-20T18:37:37.662Z,54.10
2019-02-20T18:40:10.605Z,54.27
2019-02-20T18:42:42.678Z,54.87
2019-02-20T18:45:14.273Z,54.98
2019-02-20T18:47:45.140Z,55.18
2019-02-20T18:50:16.287Z,54.96
2019-02-20T18:52:47.069Z,54.38
2019-02-20T18:55:18.956Z,54.21
2019-02-20T18:57:49.295Z,53.86
2019-02-20T19:00:23.062Z,55.09
2019-02-20T19:02:53.708Z,54.69
2019-02-20T19:05:24.255Z,55.02
2019-02-20T19:07:54.823Z,54.91
2019-02-20T19:10:40.816Z,54.91
2019-02-20T19:13:34.335Z,54.67
2019-02-20T19:16:27.244Z,55.00
2019-02-20T19:19:04.374Z,54.68
2019-02-20T19:21:50.194Z,54.65
2019-02-20T19:24:42.038Z,54.42
2019-02-20T19:27:21.410Z,54.50
2019-02-20T19:30:10.395Z,54.38
2019-02-20T19:33:08.415Z,54.87
2019-02-20T19:35:58.633Z,55.51
2019-02-20T19:38:50.264Z,56.05
2019-02-20T19:41:26.061Z,55.45
2019-02-20T19:44:16.581Z,55.88
2019-02-20T19:47:01.761Z,55.94
2019-02-20T19:49:58.927Z,56.05
2019-02-20T19:53:01.135Z,56.17
2019-02-20T19:55:56.471Z,56.06
2019-02-20T19:58:35.999Z,55.23
2019-02-20T20:01:16.604Z,55.28
2019-02-20T20:03:56.295Z,55.36
2019-02-20T20:06:45.279Z,55.74
2019-02-20T20:09:35.860Z,56.15
2019-02-20T20:12:21.426Z,55.87
2019-02-20T20:15:05.294Z,55.91
2019-02-20T20:17:43.666Z,56.44
2019-02-20T20:20:17.498Z,56.47
2019-02-20T20:23:07.919Z,56.59
2019-02-20T20:25:47.718Z,57.10
2019-02-20T20:28:31.278Z,57.05
2019-02-20T20:31:22.417Z,56.90
2019-02-20T20:34:26.428Z,56.68
2019-02-20T20:37:02.992Z,57.49
2019-02-20T20:39:57.512Z,57.41
2019-02-20T20:42:41.338Z,57.50
2019-02-20T20:45:35.813Z,58.13
2019-02-20T20:48:32.516Z,58.33
2019-02-20T20:51:26.215Z,58.27
2019-02-20T20:54:18.639Z,58.44
2019-02-20T20:57:07.825Z,57.98
2019-02-20T20:59:46.260Z,58.15
2019-02-20T21:02:19.845Z,58.29
2019-02-20T21:05:09.039Z,57.61
2019-02-20T21:07:54.727Z,58.05
2019-02-20T21:10:53.728Z,57.62
2019-02-20T21:13:46.901Z,58.11
2019-02-20T21:16:21.768Z,58.02
2019-02-20T21:19:01.493Z,58.47
2019-02-20T21:21:44.030Z,58.65
2019-02-20T21:24:29.437Z,58.77
2019-02-20T21:27:03.528Z,58.35
2019-02-20T21:30:01.206Z,58.81
2019-02-20T21:32:39.472Z,58.60
2019-02-20T21:35:30.026Z,59.22
2019-02-20T21:38:06.607Z,59.41
2019-02-20T21:40:53.159Z,59.81
2019-02-20T21:43:29.351Z,60.54
2019-02-20T21:46:16.503Z,60.51
2019-02-20T21:49:14.268Z,60.71
2019-02-20T21:51:56.464Z,60.90
2019-02-20T21:54:30.013Z,61.29
2019-02-20T21:57:18.387Z,60.56
2019-02-20T22:00:07.045Z,60.94
2019-02-20T22:02:51.188Z,60.89
2019-02-20T22:05:36.550Z,61.17
2019-02-20T22:08:40.224Z,61.60
2019-02-20T22:11:31.855Z,61.85
2019-02-20T22:14:23.777Z,61.01
2019-02-20T22:17:13.958Z,60.70
2019-02-20T22:20:06.387Z,60.83
2019-02-20T22:22:39.930Z,60.88
2019-02-20T22:25:25.564Z,60.80
2019-02-20T22:28:20.350Z,60.85
2019-02-20T22:31:25.887Z,60.65
2019-02-20T22:34:17.775Z,60.81
2019-02-20T22:37:13.978Z,60.70
2019-02-20T22:40:01.890Z,61.19
2019-02-20T22:43:09.469Z,60.81
2019-02-20T22:45:49.075Z,60.73
2019-02-20T22:48:28.367Z,60.57
2019-02-20T22:51:20.165Z,60.82
2019-02-20T22:54:08.378Z,60.75
2019-02-20T22:56:53.971Z,60.83
2019-02-20T23:00:02.015Z,60.27
2019-02-20T23:02:34.128Z,60.02
2019-02-20T23:05:13.973Z,60.17
2019-02-20T23:07:50.437Z,60.24
2019-02-20T23:10:43.589Z,60.78
2019-02-20T23:13:23.970Z,60.77
2019-02-20T23:15:54.269Z,60.44
2019-02-20T23:18:24.708Z,59.77
2019-02-20T23:20:55.029Z,60.12
2019-02-20T23:23:25.318Z,60.40
2019-02-20T23:25:55.606Z,60.70
2019-02-20T23:28:25.896Z,61.14
2019-02-20T23:30:56.266Z,61.28
2019-02-20T23:33:26.518Z,61.12
2019-02-20T23:35:56.801Z,60.91
2019-02-20T23:38:27.109Z,61.36
2019-02-20T23:40:57.594Z,61.21
2019-02-20T23:43:27.872Z,61.25
2019-02-20T23:45:58.213Z,61.63
2019-02-20T23:48:28.511Z,61.57
2019-02-20T23:50:59.244Z,61.66
2019-02-20T23:53:29.549Z,61.89
2019-02-20T23:55:59.827Z,61.53
2019-02-20T23:58:30.148Z,61.57
